Time;durP1;ratioP1;P1;durP2;ratioP2;P2;SDS_P1;SDS_P2;PMS_P1;PMS_P2;Temp;Humidity;BMP_temperature;BMP_pressure;BME280_temperature;BME280_humidity;BME280_pressure;Samples;Min_cycle;Max_cycle;Signal;HPM_P1;HPM_P2
2021/09/24 04:17:35;;;;;;;9.75;6.72;;;;;;;8.51;100.00;99022.75;4976394;23;20050;-73
2021/09/24 04:20:00;;;;;;;7.90;6.85;;;;;;;8.50;100.00;99029.63;4976622;28;20043;-73
2021/09/24 04:22:26;;;;;;;8.43;7.20;;;;;;;8.50;100.00;99032.22;4974987;28;20023;-73
2021/09/24 04:24:52;;;;;;;9.68;6.85;;;;;;;8.50;100.00;99031.34;4976565;28;20030;-73
2021/09/24 04:27:17;;;;;;;12.65;6.57;;;;;;;8.50;100.00;99031.34;4974355;28;20026;-73
2021/09/24 04:29:42;;;;;;;10.73;7.60;;;;;;;8.58;100.00;99026.16;4964338;28;20110;-76
2021/09/24 04:32:08;;;;;;;10.27;6.47;;;;;;;8.55;99.59;99032.19;4961627;28;20038;-76
2021/09/24 04:34:33;;;;;;;10.07;6.25;;;;;;;8.42;100.00;99034.00;4956798;28;20106;-76
2021/09/24 04:36:59;;;;;;;13.60;6.90;;;;;;;8.38;100.00;99032.28;4964618;28;20502;-76
2021/09/24 04:39:24;;;;;;;8.38;6.97;;;;;;;8.38;100.00;99034.88;4956484;28;20023;-76
2021/09/24 04:41:50;;;;;;;12.27;7.20;;;;;;;8.28;100.00;99040.91;4957427;28;20051;-76
2021/09/24 04:44:15;;;;;;;10.32;6.65;;;;;;;8.29;100.00;99037.47;4956720;28;20031;-76
2021/09/24 04:46:40;;;;;;;15.20;9.07;;;;;;;8.18;100.00;99039.25;4967326;28;20027;-76
2021/09/24 04:49:06;;;;;;;17.00;9.68;;;;;;;8.19;100.00;99036.66;4956779;28;20027;-76
2021/09/24 04:51:31;;;;;;;12.95;7.15;;;;;;;8.16;100.00;99036.66;4956266;28;20388;-77
2021/09/24 04:53:56;;;;;;;15.80;7.45;;;;;;;8.16;100.00;99031.50;4958762;28;20031;-77
2021/09/24 04:56:22;;;;;;;10.48;7.32;;;;;;;8.17;100.00;99028.06;4962115;28;20042;-77
2021/09/24 04:58:47;;;;;;;13.73;7.75;;;;;;;8.28;100.00;99030.59;4962238;28;20503;-77
2021/09/24 05:01:13;;;;;;;10.18;6.55;;;;;;;8.24;100.00;99034.91;4961756;28;20022;-77
2021/09/24 05:03:38;;;;;;;8.50;6.50;;;;;;;8.32;100.00;99037.47;4964839;28;20027;-76
2021/09/24 05:06:03;;;;;;;10.57;6.47;;;;;;;8.18;100.00;99034.94;4958593;28;20035;-77
2021/09/24 05:08:29;;;;;;;12.27;7.40;;;;;;;8.19;100.00;99035.78;4959251;28;20038;-77
2021/09/24 05:10:54;;;;;;;11.75;7.10;;;;;;;8.19;100.00;99041.81;4958354;28;20033;-77
2021/09/24 05:13:19;;;;;;;8.52;6.93;;;;;;;8.12;100.00;99039.25;4958673;28;20385;-77
2021/09/24 05:15:45;;;;;;;8.25;6.63;;;;;;;8.25;100.00;99041.78;4961312;28;20042;-77
2021/09/24 05:18:10;;;;;;;13.20;5.95;;;;;;;8.14;100.00;99037.53;4960199;28;20039;-77
2021/09/24 05:20:36;;;;;;;10.02;6.22;;;;;;;8.19;100.00;99046.13;4966899;28;20023;-77
2021/09/24 05:23:01;;;;;;;11.23;7.15;;;;;;;8.11;100.00;99042.69;4964016;28;20488;-76
2021/09/24 05:25:26;;;;;;;7.20;6.50;;;;;;;8.12;100.00;99059.91;4955703;28;20059;-77
2021/09/24 05:27:52;;;;;;;11.50;6.65;;;;;;;8.35;100.00;99052.91;4964268;28;20027;-76
2021/09/24 05:30:18;;;;;;;8.50;6.28;;;;;;;8.32;99.74;99047.78;4962210;28;20054;-77
2021/09/24 05:32:44;;;;;;;8.98;6.47;;;;;;;8.49;99.16;99055.47;4964077;28;20086;-76
2021/09/24 05:35:10;;;;;;;11.95;6.85;;;;;;;8.40;99.11;99056.38;4959164;28;20030;-76
2021/09/24 05:37:36;;;;;;;10.85;7.30;;;;;;;8.55;98.78;99054.56;4957843;28;20050;-76
2021/09/24 05:40:04;;;;;;;9.05;6.28;;;;;;;8.59;97.81;99053.69;4969400;28;20050;-76
2021/09/24 05:42:29;;;;;;;11.85;6.15;;;;;;;8.83;96.94;99048.38;4958500;28;20023;-76
2021/09/24 05:44:55;;;;;;;8.90;5.95;;;;;;;9.10;95.44;99043.91;4961759;28;20031;-76
2021/09/24 05:47:21;;;;;;;7.22;5.95;;;;;;;9.73;92.91;99047.63;4961303;28;20034;-76
2021/09/24 05:49:46;;;;;;;10.85;6.40;;;;;;;10.21;88.23;99040.19;4964584;28;20090;-76
2021/09/24 05:52:11;;;;;;;9.48;5.95;;;;;;;10.78;85.59;99042.03;4961121;28;20033;-77
2021/09/24 05:54:37;;;;;;;8.13;5.47;;;;;;;11.43;82.00;99040.13;4958479;28;20031;-77
2021/09/24 05:57:02;;;;;;;11.45;5.15;;;;;;;12.39;78.12;99032.28;4964358;28;20019;-77
2021/09/24 05:59:27;;;;;;;8.60;5.30;;;;;;;12.73;75.91;99036.72;4962578;28;20054;-76
2021/09/24 06:01:53;;;;;;;7.18;5.57;;;;;;;13.68;73.24;99034.41;4957013;28;20031;-77
2021/09/24 06:04:19;;;;;;;7.50;4.95;;;;;;;14.59;67.67;99041.44;4961039;28;20118;-77
2021/09/24 06:06:45;;;;;;;8.75;5.03;;;;;;;13.88;69.34;99042.59;4958818;28;20022;-77
2021/09/24 06:09:11;;;;;;;5.43;4.72;;;;;;;13.67;70.30;99043.97;4957887;28;20027;-77
2021/09/24 06:11:36;;;;;;;11.32;5.05;;;;;;;14.20;68.36;99049.47;4968549;28;20393;-76
2021/09/24 06:14:03;;;;;;;8.20;5.00;;;;;;;14.96;66.93;99056.81;4960269;28;20035;-78
2021/09/24 06:16:28;;;;;;;6.53;4.90;;;;;;;15.46;64.57;99049.09;4963429;28;20046;-77
2021/09/24 06:18:54;;;;;;;7.35;4.22;;;;;;;16.04;62.91;99049.72;4960699;28;20031;-77
2021/09/24 06:21:21;;;;;;;7.35;4.32;;;;;;;16.63;61.21;99049.31;4958369;28;20046;-77
2021/09/24 06:23:46;;;;;;;4.82;4.10;;;;;;;17.40;58.71;99054.13;4943843;28;20042;-77
2021/09/24 06:26:11;;;;;;;7.93;4.50;;;;;;;16.84;59.53;99057.25;4964358;28;20027;-77
2021/09/24 06:28:37;;;;;;;5.47;4.50;;;;;;;15.47;62.25;99063.84;4964694;28;20038;-77
2021/09/24 06:31:03;;;;;;;6.47;4.68;;;;;;;14.48;66.74;99065.22;4961327;28;20023;-77
2021/09/24 06:33:28;;;;;;;9.85;5.07;;;;;;;13.43;71.24;99071.50;4959033;28;20523;-77
2021/09/24 06:35:54;;;;;;;5.80;5.25;;;;;;;12.48;75.50;99068.47;4960400;28;20601;-77
2021/09/24 06:38:19;;;;;;;10.85;5.38;;;;;;;12.47;77.27;99063.28;4965911;28;20110;-77
2021/09/24 06:40:44;;;;;;;13.10;5.38;;;;;;;12.07;78.71;99072.72;4962337;28;20446;-77
2021/09/24 06:43:10;;;;;;;9.40;6.43;;;;;;;11.27;81.91;99073.25;4963214;28;20023;-77
2021/09/24 06:45:36;;;;;;;10.82;5.47;;;;;;;10.83;85.58;99081.72;4959039;28;20034;-77
2021/09/24 06:48:02;;;;;;;10.68;6.35;;;;;;;10.86;86.44;99086.84;4962733;28;20030;-77
2021/09/24 06:50:28;;;;;;;13.15;6.30;;;;;;;10.79;86.80;99086.09;4962145;28;20388;-77
2021/09/24 06:52:53;;;;;;;9.98;6.50;;;;;;;10.89;87.25;99085.97;4957484;28;20042;-77
2021/09/24 06:55:22;;;;;;;12.00;6.20;;;;;;;10.81;87.86;99088.66;4958486;28;20030;-77
2021/09/24 06:57:48;;;;;;;8.30;6.30;;;;;;;11.05;86.63;99083.09;4966194;28;20380;-77
2021/09/24 07:00:14;;;;;;;9.05;6.20;;;;;;;11.75;84.62;99080.25;4957848;28;20396;-77
2021/09/24 07:02:39;;;;;;;13.05;5.90;;;;;;;12.22;81.26;99078.50;4966163;28;20081;-77
2021/09/24 07:05:05;;;;;;;10.05;5.95;;;;;;;12.59;79.57;99082.06;4964745;28;20035;-77
2021/09/24 07:07:30;;;;;;;8.20;6.07;;;;;;;13.85;75.73;99071.31;4954732;28;20031;-77
2021/09/24 07:09:58;;;;;;;11.05;5.18;;;;;;;14.06;73.46;99077.69;4958724;28;20035;-77
2021/09/24 07:12:24;;;;;;;6.90;5.28;;;;;;;15.50;68.89;99079.44;4955965;28;20015;-77
2021/09/24 07:14:49;;;;;;;10.05;5.90;;;;;;;14.83;69.36;99081.56;4962764;28;20388;-77
2021/09/24 07:17:15;;;;;;;7.63;5.43;;;;;;;14.62;71.30;99073.50;4963684;28;20029;-77
2021/09/24 07:19:41;;;;;;;7.75;5.43;;;;;;;14.09;74.19;99085.41;4956509;28;20425;-77
2021/09/24 07:22:07;;;;;;;17.98;7.00;;;;;;;13.92;75.49;99085.00;4953347;28;20031;-77
2021/09/24 07:24:32;;;;;;;8.77;5.93;;;;;;;13.83;76.38;99080.91;4957057;28;20544;-77
2021/09/24 07:26:58;;;;;;;9.10;6.40;;;;;;;13.35;77.47;99089.06;4957140;28;20019;-77
2021/09/24 07:29:23;;;;;;;10.30;6.35;;;;;;;13.13;79.08;99094.72;4961016;28;20016;-77
2021/09/24 07:31:49;;;;;;;12.90;6.15;;;;;;;13.22;80.23;99090.25;4955942;28;20389;-77
2021/09/24 07:34:14;;;;;;;11.43;6.10;;;;;;;13.50;79.56;99088.69;4957824;28;20053;-77
2021/09/24 07:36:39;;;;;;;13.77;6.63;;;;;;;13.92;78.30;99085.84;4953198;28;20023;-78
2021/09/24 07:39:06;;;;;;;11.20;6.97;;;;;;;13.80;78.08;99084.44;4954760;28;20118;-78
2021/09/24 07:41:32;;;;;;;10.60;6.68;;;;;;;13.73;79.03;99090.72;4956452;28;20027;-77
2021/09/24 07:43:59;;;;;;;12.00;7.47;;;;;;;13.52;79.29;99092.09;4951817;28;20090;-78
2021/09/24 07:46:24;;;;;;;15.35;6.70;;;;;;;13.40;80.64;99084.63;4959711;28;20023;-78
2021/09/24 07:48:50;;;;;;;11.27;6.57;;;;;;;13.79;79.69;99094.91;4966408;28;20032;-77
2021/09/24 07:51:16;;;;;;;14.68;6.40;;;;;;;13.76;79.81;99097.59;4955646;28;20477;-77
2021/09/24 07:53:41;;;;;;;10.35;7.03;;;;;;;13.82;79.16;99100.88;4962864;28;20024;-77
2021/09/24 07:56:08;;;;;;;11.15;6.43;;;;;;;14.01;79.21;99093.44;4969245;28;20082;-77
2021/09/24 07:58:36;;;;;;;11.65;6.15;;;;;;;14.24;78.09;99081.53;4959574;28;20034;-77
2021/09/24 08:01:01;;;;;;;8.05;5.78;;;;;;;14.77;76.51;99087.84;4957036;28;20114;-77
2021/09/24 08:03:26;;;;;;;14.25;6.30;;;;;;;15.15;74.86;99094.50;4961207;28;20109;-77
2021/09/24 08:05:52;;;;;;;9.68;6.45;;;;;;;16.04;71.32;99086.31;4966390;28;20502;-77
2021/09/24 08:08:17;;;;;;;5.53;4.97;;;;;;;19.87;58.59;99075.16;4956346;28;20423;-78
2021/09/24 08:10:42;;;;;;;6.18;4.55;;;;;;;22.21;50.75;99076.16;4957799;28;20023;-78
2021/09/24 08:13:08;;;;;;;8.40;4.60;;;;;;;22.04;50.31;99078.94;4957699;28;20623;-77
2021/09/24 08:15:35;;;;;;;6.25;4.50;;;;;;;24.13;45.14;99085.81;4956893;28;20089;-78
2021/09/24 08:18:00;;;;;;;5.28;3.58;;;;;;;23.47;45.90;99097.31;4960237;28;20384;-78
2021/09/24 08:20:26;;;;;;;4.97;4.35;;;;;;;23.10;47.13;99097.03;4962346;28;20317;-78
2021/09/24 08:22:51;;;;;;;5.57;4.30;;;;;;;21.99;50.31;99096.84;4962190;28;20021;-78
2021/09/24 08:25:19;;;;;;;6.60;4.20;;;;;;;21.32;50.91;99100.75;4958949;28;20034;-78
2021/09/24 08:27:46;;;;;;;10.50;4.20;;;;;;;21.08;52.17;99097.69;4956490;28;20057;-78
2021/09/24 08:30:14;;;;;;;4.93;3.88;;;;;;;21.26;51.65;99101.91;4960827;28;20027;-78
2021/09/24 08:32:40;;;;;;;6.30;4.78;;;;;;;21.23;52.04;99097.69;4959018;28;20034;-77
2021/09/24 08:35:09;;;;;;;7.88;4.40;;;;;;;21.42;51.53;99094.91;4961491;28;20023;-77
2021/09/24 08:37:36;;;;;;;5.18;4.13;;;;;;;22.04;49.56;99084.22;4956575;28;20050;-77
2021/09/24 08:40:03;;;;;;;8.30;5.13;;;;;;;22.96;47.47;99086.50;4955922;28;20023;-78
2021/09/24 08:42:29;;;;;;;7.18;4.93;;;;;;;22.45;48.62;99087.03;4964844;28;20102;-78
2021/09/24 08:44:54;;;;;;;5.28;4.10;;;;;;;21.22;51.90;99095.13;4966914;28;20114;-78
2021/09/24 08:47:20;;;;;;;12.15;4.82;;;;;;;19.98;54.95;99088.63;4960404;28;20034;-78
2021/09/24 08:49:46;;;;;;;7.32;4.32;;;;;;;20.34;54.68;99091.13;4959149;28;20374;-78
2021/09/24 08:52:12;;;;;;;9.38;4.60;;;;;;;22.01;51.20;99084.41;4959439;28;20106;-78
2021/09/24 08:54:37;;;;;;;8.60;4.57;;;;;;;22.74;48.18;99085.19;4960143;28;20018;-78
2021/09/24 08:57:03;;;;;;;4.78;4.28;;;;;;;24.45;44.02;99082.75;4958548;28;20109;-77
2021/09/24 08:59:30;;;;;;;7.68;4.07;;;;;;;26.60;39.44;99079.16;4957063;28;20074;-78
2021/09/24 09:01:58;;;;;;;5.28;3.83;;;;;;;29.45;34.10;99074.44;4963642;28;20077;-78
2021/09/24 09:04:38;;;;;;;6.10;3.90;;;;;;;31.32;30.84;99081.63;4957137;28;20023;-78
2021/09/24 09:07:05;;;;;;;5.90;3.65;;;;;;;31.25;29.90;99085.88;4959068;28;20035;-78
2021/09/24 09:09:33;;;;;;;5.90;3.28;;;;;;;31.99;29.16;99077.53;4963267;28;20035;-78
2021/09/24 09:12:09;;;;;;;4.25;3.10;;;;;;;32.27;29.12;99069.34;4968802;28;20122;-78
2021/09/24 09:14:34;;;;;;;3.47;3.13;;;;;;;31.12;30.51;99080.06;4955988;28;20027;-78
2021/09/24 09:17:00;;;;;;;5.47;2.95;;;;;;;33.43;27.75;99070.50;4961491;28;20042;-78
2021/09/24 09:19:25;;;;;;;5.35;2.92;;;;;;;32.86;27.90;99067.63;4960043;28;20038;-78
2021/09/24 09:21:50;;;;;;;11.63;3.35;;;;;;;33.04;26.88;99066.72;4957162;28;20047;-78
2021/09/24 09:24:26;;;;;;;5.23;3.67;;;;;;;31.12;29.09;99074.69;4962386;28;20055;-78
2021/09/24 09:27:17;;;;;;;8.13;3.35;;;;;;;33.29;26.94;99073.81;4956882;28;20313;-78
2021/09/24 09:30:01;;;;;;;6.35;3.65;;;;;;;31.77;28.53;99075.34;4962074;28;20444;-78
2021/09/24 09:32:26;;;;;;;5.32;3.50;;;;;;;33.79;26.28;99074.69;4956935;28;20389;-78
2021/09/24 09:34:52;;;;;;;10.82;5.80;;;;;;;33.77;26.24;99077.56;4971640;28;20030;-78
2021/09/24 09:37:20;;;;;;;6.70;3.88;;;;;;;29.61;31.75;99079.25;4961796;28;20019;-78
2021/09/24 09:40:00;;;;;;;6.43;4.13;;;;;;;31.67;29.29;99077.25;4955738;28;20034;-78
2021/09/24 09:42:38;;;;;;;7.25;3.67;;;;;;;31.06;30.31;99081.50;4963479;28;20425;-79
2021/09/24 09:45:05;;;;;;;14.68;4.32;;;;;;;29.38;32.79;99074.13;4955653;28;20027;-77
2021/09/24 09:47:33;;;;;;;3.92;3.20;;;;;;;32.66;28.06;99063.53;4958325;28;20031;-78
2021/09/24 09:50:05;;;;;;;4.73;3.00;;;;;;;34.45;25.79;99061.03;4959537;28;20038;-78
2021/09/24 09:52:32;;;;;;;4.00;3.20;;;;;;;32.67;27.89;99068.72;4959579;28;20269;-78
2021/09/24 09:55:02;;;;;;;8.20;2.92;;;;;;;31.60;28.87;99069.00;4960956;28;20660;-78
2021/09/24 09:57:27;;;;;;;3.85;3.40;;;;;;;31.40;29.35;99062.97;4963625;28;20031;-78
2021/09/24 09:59:54;;;;;;;5.70;4.50;;;;;;;31.99;28.94;99061.44;4957685;28;20027;-78
2021/09/24 10:02:21;;;;;;;7.32;3.58;;;;;;;27.82;34.49;99069.16;4955161;28;20076;-78
2021/09/24 10:04:52;;;;;;;6.10;3.70;;;;;;;24.78;41.65;99069.78;4959300;28;20063;-78
2021/09/24 10:07:35;;;;;;;7.65;3.65;;;;;;;26.88;37.40;99061.81;4955848;28;20500;-77
2021/09/24 10:10:14;;;;;;;5.93;3.58;;;;;;;26.33;38.96;99056.41;4915701;28;20063;-77
2021/09/24 10:12:42;;;;;;;6.45;3.75;;;;;;;27.82;35.74;99053.19;4951262;28;20023;-78
2021/09/24 10:15:09;;;;;;;8.70;3.55;;;;;;;27.93;35.17;99044.28;4959634;28;20023;-78
2021/09/24 10:17:35;;;;;;;3.85;3.10;;;;;;;30.65;30.89;99050.69;4958419;28;20050;-78
2021/09/24 10:20:00;;;;;;;6.47;3.50;;;;;;;31.74;29.39;99043.50;4931361;28;20125;-78
2021/09/24 10:22:27;;;;;;;6.82;3.03;;;;;;;32.76;28.38;99037.41;4897279;28;20019;-78
2021/09/24 10:24:54;;;;;;;5.40;2.80;;;;;;;33.21;26.59;99034.31;4951910;28;20126;-78
2021/09/24 10:27:27;;;;;;;4.50;3.55;;;;;;;32.93;27.82;99036.47;4947196;28;20014;-78
2021/09/24 10:29:54;;;;;;;3.35;2.65;;;;;;;32.23;27.96;99038.47;4909345;28;20124;-75
2021/09/24 10:32:26;;;;;;;6.65;2.50;;;;;;;33.93;26.31;99029.13;4909533;28;20026;-75
2021/09/24 10:35:07;;;;;;;6.40;4.85;;;;;;;33.68;25.77;99035.56;4957421;28;20039;-75
2021/09/24 10:37:35;;;;;;;5.40;2.65;;;;;;;32.39;27.68;99033.22;4954666;28;20114;-75
2021/09/24 10:40:04;;;;;;;8.10;2.90;;;;;;;32.14;28.63;99029.53;4959928;28;20030;-75
2021/09/24 10:42:35;;;;;;;3.42;2.65;;;;;;;31.83;28.57;99023.81;4960490;28;20495;-75
2021/09/24 10:45:04;;;;;;;5.63;3.50;;;;;;;31.64;28.30;99026.66;4959288;28;20063;-75
2021/09/24 10:47:50;;;;;;;4.15;2.72;;;;;;;30.38;30.61;99022.13;4966364;28;20105;-75
2021/09/24 10:50:30;;;;;;;7.25;2.67;;;;;;;33.76;26.13;99009.53;4954451;28;20098;-75
2021/09/24 10:53:17;;;;;;;3.03;2.50;;;;;;;34.31;24.99;99005.19;4952890;28;20117;-76
2021/09/24 10:55:49;;;;;;;6.20;2.92;;;;;;;33.66;26.14;99010.72;4959776;28;20029;-75
2021/09/24 10:58:26;;;;;;;4.38;2.53;;;;;;;32.69;26.42;99009.53;4953737;28;20107;-75
2021/09/24 11:00:53;;;;;;;8.77;2.45;;;;;;;30.56;29.51;99008.78;4957971;28;20114;-75
2021/09/24 11:03:22;;;;;;;4.13;2.50;;;;;;;28.87;32.06;99011.16;4959004;28;20023;-75
2021/09/24 11:06:06;;;;;;;3.55;2.22;;;;;;;29.67;31.08;99002.06;4960410;28;20444;-75
2021/09/24 11:08:36;;;;;;;3.10;2.67;;;;;;;30.37;29.64;99005.25;4966834;28;20015;-75
2021/09/24 11:11:11;;;;;;;3.17;2.83;;;;;;;30.12;30.61;99000.50;4954469;28;20029;-75
2021/09/24 11:13:46;;;;;;;2.67;2.47;;;;;;;29.48;31.35;99007.38;4961125;28;20097;-75
2021/09/24 11:16:17;;;;;;;3.10;2.65;;;;;;;30.01;31.18;99003.38;4959048;28;20030;-75
2021/09/24 11:18:48;;;;;;;3.95;2.20;;;;;;;30.56;30.46;98990.06;4963420;28;20034;-75
2021/09/24 11:21:22;;;;;;;3.10;2.10;;;;;;;32.02;28.02;98992.44;4966751;28;20472;-75
2021/09/24 11:23:50;;;;;;;6.38;5.45;;;;;;;31.97;28.03;98990.25;4963260;28;20050;-75
2021/09/24 11:26:25;;;;;;;4.40;3.00;;;;;;;30.08;30.19;98988.47;4960388;28;20027;-75
2021/09/24 11:29:06;;;;;;;3.20;2.42;;;;;;;26.54;36.50;98997.22;4957478;28;20109;-75
2021/09/24 11:31:53;;;;;;;3.38;2.40;;;;;;;28.67;33.08;98980.06;4960404;28;20034;-75
2021/09/24 11:34:33;;;;;;;8.80;6.30;;;;;;;28.36;34.01;98982.78;4955081;28;20020;-75
2021/09/24 11:37:34;;;;;;;7.18;2.80;;;;;;;29.28;32.57;98979.88;4961968;28;20027;-75
2021/09/24 11:40:02;;;;;;;4.78;2.35;;;;;;;30.39;29.42;98975.69;4964464;28;20023;-75
2021/09/24 11:42:31;;;;;;;5.47;2.50;;;;;;;30.37;29.65;98970.47;4954373;28;20447;-75
2021/09/24 11:44:58;;;;;;;4.38;2.38;;;;;;;32.28;27.86;98966.41;4961886;28;20023;-75
2021/09/24 11:47:40;;;;;;;2.85;2.33;;;;;;;33.12;26.08;98970.03;4962475;28;20062;-75
2021/09/24 11:50:17;;;;;;;4.28;2.40;;;;;;;31.73;27.64;98964.09;4953357;28;20102;-75
2021/09/24 11:52:52;;;;;;;3.65;2.42;;;;;;;29.16;31.57;98968.50;4954464;28;20102;-75
2021/09/24 11:55:29;;;;;;;5.28;2.83;;;;;;;24.83;38.28;98966.91;4963747;28;20029;-75
2021/09/24 11:57:59;;;;;;;4.70;3.20;;;;;;;25.11;38.56;98946.34;4954091;28;20150;-75
2021/09/24 12:00:27;;;;;;;9.93;2.90;;;;;;;24.90;40.22;98966.44;4962630;28;20491;-75
2021/09/24 12:03:17;;;;;;;6.32;2.95;;;;;;;24.19;41.94;98963.59;4953625;28;20499;-75
2021/09/24 12:06:08;;;;;;;3.63;3.22;;;;;;;24.33;41.71;98947.56;4959883;28;20028;-75
2021/09/24 12:08:45;;;;;;;5.57;2.88;;;;;;;24.17;41.84;98957.53;4957485;28;20030;-75
2021/09/24 12:11:16;;;;;;;5.82;3.22;;;;;;;23.59;42.13;98945.69;4952464;28;20033;-75
2021/09/24 12:13:46;;;;;;;6.60;3.05;;;;;;;24.09;42.99;98944.00;4963055;28;20023;-75
2021/09/24 12:16:25;;;;;;;3.97;3.03;;;;;;;24.38;42.79;98944.59;4956613;28;20034;-75
2021/09/24 12:19:10;;;;;;;5.18;2.90;;;;;;;23.68;43.35;98945.09;4961348;28;20034;-75
2021/09/24 12:21:51;;;;;;;5.38;2.90;;;;;;;24.42;41.78;98940.78;4958784;28;20027;-75
2021/09/24 12:24:31;;;;;;;7.10;3.22;;;;;;;24.19;42.63;98942.41;4954731;28;20151;-75
2021/09/24 12:27:08;;;;;;;5.18;3.13;;;;;;;24.21;42.28;98943.13;4963243;28;20404;-75
2021/09/24 12:29:34;;;;;;;5.15;3.50;;;;;;;24.21;42.83;98937.81;4959369;28;20284;-75
2021/09/24 12:32:08;;;;;;;3.42;2.63;;;;;;;23.67;43.62;98932.81;4962772;28;20019;-77
2021/09/24 12:34:45;;;;;;;3.58;2.83;;;;;;;23.65;43.71;98934.75;4962530;28;20019;-77
2021/09/24 12:37:13;;;;;;;10.80;3.65;;;;;;;23.59;43.13;98928.03;4959607;28;20094;-77
2021/09/24 12:39:40;;;;;;;8.18;3.65;;;;;;;23.33;44.12;98929.81;4954914;28;20023;-77
2021/09/24 12:42:12;;;;;;;10.25;3.45;;;;;;;23.41;43.89;98926.66;4962434;28;20029;-77
2021/09/24 12:44:53;;;;;;;4.07;3.20;;;;;;;23.52;44.15;98923.28;4964672;28;20034;-77
2021/09/24 12:47:27;;;;;;;3.70;3.30;;;;;;;23.64;42.43;98922.44;4963807;28;20015;-77
2021/09/24 12:49:55;;;;;;;3.05;2.85;;;;;;;23.22;44.57;98920.91;4957879;28;20051;-77
2021/09/24 12:52:22;;;;;;;3.00;2.70;;;;;;;23.38;44.62;98907.50;4964520;28;20045;-77
2021/09/24 12:54:48;;;;;;;3.58;2.90;;;;;;;23.44;44.72;98901.78;4963270;28;20030;-77
2021/09/24 12:57:18;;;;;;;3.13;2.60;;;;;;;23.44;44.84;98897.31;4937027;28;20035;-77
2021/09/24 12:59:48;;;;;;;6.07;2.85;;;;;;;23.38;43.63;98896.91;4936918;28;20027;-77
2021/09/24 13:02:15;;;;;;;4.10;3.10;;;;;;;23.47;43.27;98898.94;4962984;28;20015;-77
2021/09/24 13:04:42;;;;;;;6.32;2.78;;;;;;;23.48;44.17;98892.69;4963605;28;20042;-77
2021/09/24 13:07:07;;;;;;;6.35;3.10;;;;;;;23.18;43.42;98882.41;4960229;28;20377;-76
2021/09/24 13:09:33;;;;;;;5.40;2.67;;;;;;;23.60;43.31;98883.91;4941501;28;20062;-77
2021/09/24 13:11:58;;;;;;;2.90;2.50;;;;;;;23.05;43.64;98882.38;4926280;28;20023;-77
2021/09/24 13:14:23;;;;;;;5.85;2.92;;;;;;;23.19;44.59;98879.66;4965083;28;20042;-77
2021/09/24 13:16:49;;;;;;;4.22;2.58;;;;;;;23.27;43.31;98877.34;4965219;28;20121;-77
2021/09/24 13:19:15;;;;;;;2.83;2.55;;;;;;;23.37;44.41;98879.38;4932014;28;20058;-76
2021/09/24 13:21:40;;;;;;;4.13;2.95;;;;;;;23.42;43.68;98882.53;4909008;28;20090;-77
2021/09/24 13:24:05;;;;;;;4.15;2.65;;;;;;;23.58;43.33;98876.06;4933219;28;20038;-77
2021/09/24 13:26:31;;;;;;;3.50;3.13;;;;;;;23.83;42.39;98872.56;4948521;28;20090;-77
2021/09/24 13:28:58;;;;;;;4.63;2.47;;;;;;;23.02;43.29;98874.69;4958841;28;20022;-76
2021/09/24 13:31:23;;;;;;;4.70;2.70;;;;;;;23.62;42.85;98866.13;4964161;28;20369;-76
2021/09/24 13:33:48;;;;;;;4.20;2.47;;;;;;;23.05;42.78;98871.81;4963991;28;20077;-78
2021/09/24 13:36:15;;;;;;;5.93;5.32;;;;;;;23.61;43.35;98864.44;4964395;28;20026;-77
2021/09/24 13:38:40;;;;;;;6.22;2.70;;;;;;;23.53;43.42;98861.47;4959168;28;20026;-77
2021/09/24 13:41:05;;;;;;;6.32;2.78;;;;;;;23.54;42.54;98863.16;4965627;28;20078;-77
2021/09/24 13:43:31;;;;;;;4.15;2.50;;;;;;;23.57;43.27;98857.66;4965912;28;20027;-77
2021/09/24 13:45:57;;;;;;;2.83;2.20;;;;;;;23.56;43.44;98861.25;4965538;28;20061;-77
2021/09/24 13:48:23;;;;;;;2.78;2.45;;;;;;;23.67;42.99;98863.19;4959733;28;20100;-77
2021/09/24 13:50:48;;;;;;;5.28;2.75;;;;;;;23.51;42.87;98855.44;4955936;28;20023;-77
2021/09/24 13:53:15;;;;;;;4.63;2.92;;;;;;;23.55;42.33;98849.00;4959723;28;20389;-77
2021/09/24 13:55:41;;;;;;;4.35;1.90;;;;;;;23.92;42.95;98847.25;4951998;28;20415;-77
2021/09/24 13:58:06;;;;;;;5.57;2.97;;;;;;;24.05;42.30;98840.13;4962569;28;20034;-77
2021/09/24 14:00:32;;;;;;;3.78;2.63;;;;;;;24.07;42.08;98840.00;4954448;28;20039;-77
2021/09/24 14:02:57;;;;;;;3.85;3.33;;;;;;;23.85;41.12;98838.06;4965052;28;20042;-77
2021/09/24 14:05:22;;;;;;;3.00;2.70;;;;;;;23.85;41.94;98835.41;4960231;28;20028;-77
2021/09/24 14:07:48;;;;;;;5.32;2.58;;;;;;;23.63;41.59;98836.06;4963224;28;20022;-77
2021/09/24 14:10:15;;;;;;;7.57;3.03;;;;;;;23.49;42.07;98823.78;4958435;28;20472;-77
2021/09/24 14:12:42;;;;;;;3.05;2.35;;;;;;;23.76;41.55;98830.78;4959459;28;20110;-77
2021/09/24 14:15:09;;;;;;;3.28;2.83;;;;;;;23.52;41.57;98825.41;4956211;28;20048;-77
2021/09/24 14:17:35;;;;;;;4.45;2.70;;;;;;;23.43;42.89;98820.75;4959893;28;20035;-77
2021/09/24 14:20:01;;;;;;;2.28;2.10;;;;;;;23.55;42.90;98823.38;4961110;28;20078;-77
2021/09/24 14:22:26;;;;;;;6.63;3.40;;;;;;;23.88;41.96;98823.75;4958740;28;20023;-77
2021/09/24 14:24:52;;;;;;;3.78;3.30;;;;;;;23.83;41.00;98819.63;4961637;28;20081;-77
2021/09/24 14:27:18;;;;;;;5.00;2.72;;;;;;;23.97;43.09;98820.44;4960492;28;20019;-77
2021/09/24 14:29:43;;;;;;;5.20;4.70;;;;;;;23.96;40.88;98816.97;4962494;28;20031;-79
2021/09/24 14:32:11;;;;;;;3.95;3.10;;;;;;;23.67;41.39;98819.03;4956811;28;20022;-77
2021/09/24 14:34:38;;;;;;;3.53;2.60;;;;;;;23.67;42.54;98816.41;4962485;28;20159;-77
2021/09/24 14:37:04;;;;;;;2.58;2.25;;;;;;;23.63;41.39;98809.59;4961738;28;20628;-77
2021/09/24 14:39:29;;;;;;;6.78;3.15;;;;;;;23.22;42.78;98804.59;4959673;28;20019;-78
2021/09/24 14:41:55;;;;;;;3.97;2.60;;;;;;;23.58;41.94;98801.16;4957901;28;20019;-77
2021/09/24 14:44:22;;;;;;;3.10;2.80;;;;;;;23.81;42.09;98792.44;4964692;28;20031;-77
2021/09/24 14:46:48;;;;;;;2.97;2.72;;;;;;;23.75;43.37;98798.19;4962610;28;20033;-78
2021/09/24 14:49:13;;;;;;;5.47;3.90;;;;;;;23.67;41.13;98795.25;4956938;28;20019;-78
2021/09/24 14:51:38;;;;;;;4.80;2.53;;;;;;;23.72;42.01;98787.81;4958505;28;20528;-77
2021/09/24 14:54:03;;;;;;;4.68;2.63;;;;;;;23.58;41.96;98790.56;4960210;28;20045;-78
2021/09/24 14:56:29;;;;;;;3.38;3.15;;;;;;;23.43;41.74;98792.50;4962480;28;20110;-78
2021/09/24 14:58:54;;;;;;;7.80;3.00;;;;;;;23.13;41.92;98784.91;4956835;28;20058;-77
2021/09/24 15:01:20;;;;;;;8.40;3.25;;;;;;;23.60;42.56;98784.22;4965591;28;20037;-78
2021/09/24 15:03:45;;;;;;;4.88;3.20;;;;;;;23.53;43.69;98782.13;4959017;28;20027;-77
2021/09/24 15:06:10;;;;;;;3.60;2.85;;;;;;;23.64;42.56;98779.56;4960618;28;20023;-78
2021/09/24 15:08:36;;;;;;;3.17;2.90;;;;;;;23.45;42.48;98773.88;4957332;28;20018;-77
2021/09/24 15:11:01;;;;;;;6.93;2.88;;;;;;;23.59;42.25;98771.09;4963213;28;20023;-77
2021/09/24 15:13:26;;;;;;;3.90;3.00;;;;;;;23.50;42.87;98777.06;4956542;28;20451;-77
2021/09/24 15:15:52;;;;;;;3.60;2.70;;;;;;;23.38;42.74;98773.47;4962806;28;20042;-77
2021/09/24 15:18:22;;;;;;;5.55;3.00;;;;;;;23.12;42.68;98764.72;4960893;28;20551;-77
2021/09/24 15:20:48;;;;;;;3.67;2.90;;;;;;;23.00;43.12;98763.75;4956163;28;20027;-77
2021/09/24 15:23:13;;;;;;;3.33;3.03;;;;;;;23.15;43.20;98767.13;4958953;28;20019;-77
2021/09/24 15:25:38;;;;;;;4.22;3.05;;;;;;;23.14;44.87;98765.44;4952814;28;20031;-77
2021/09/24 15:28:04;;;;;;;8.82;3.03;;;;;;;23.03;43.91;98768.84;4966795;28;20051;-77
2021/09/24 15:30:30;;;;;;;6.88;2.95;;;;;;;23.04;44.36;98759.13;4964921;28;20026;-78
2021/09/24 15:32:55;;;;;;;5.07;3.10;;;;;;;23.10;43.85;98756.03;4957570;28;20028;-77
2021/09/24 15:35:21;;;;;;;3.70;3.13;;;;;;;23.03;44.81;98757.44;4958554;28;20380;-77
2021/09/24 15:37:46;;;;;;;3.30;3.00;;;;;;;22.99;44.31;98761.22;4954357;28;20084;-77
2021/09/24 15:40:14;;;;;;;5.05;3.42;;;;;;;22.90;44.73;98757.44;4953837;28;20023;-78
2021/09/24 15:42:40;;;;;;;5.13;3.10;;;;;;;22.65;45.86;98757.38;4955045;28;20027;-77
2021/09/24 15:45:06;;;;;;;10.98;2.85;;;;;;;22.26;46.99;98762.59;4960239;28;20077;-77
2021/09/24 15:47:31;;;;;;;5.22;3.30;;;;;;;21.99;48.28;98759.06;4956952;28;20023;-77
2021/09/24 15:49:56;;;;;;;3.08;2.78;;;;;;;21.91;48.95;98766.66;4959001;28;20034;-77
2021/09/24 15:52:22;;;;;;;4.50;3.20;;;;;;;21.69;48.86;98762.75;4958998;28;20358;-77